CheckWX is a tool to help pilots better visualize weather data.  It is not intended as a substitute for an official pre-flight weather briefing.

14:07:25 UTC

KHOU TAF
William P Hobby Airport
Houston, Texas, USA
KHOU 221120Z 2212/2312 03005KT P6SM SKC FM221500 05009KT P6SM SKC FM230100 08004KT P6SM SKC

Oct-22@
12:00 UTC

Oct-22 @ 12:00 UTC

Oct-22@
15:00 UTC

Oct-22 @ 15:00 UTC

KHOU 221120Z 2212/2312 03005KT P6SM SKC
Wind
  • 030° at 5 KTS
Cloud Levels
  • Clear skies

Oct-22@
15:00 UTC

Oct-22 @ 15:00 UTC

Oct-23@
01:00 UTC

Oct-23 @ 01:00 UTC

FM221500 05009KT P6SM SKC

From

From Standard forecast or significant change

Wind
  • 050° at 9 KTS
Cloud Levels
  • Clear skies

Oct-23@
01:00 UTC

Oct-23 @ 01:00 UTC

Oct-23@
12:00 UTC

Oct-23 @ 12:00 UTC

FM230100 08004KT P6SM SKC

From

From Standard forecast or significant change

Wind
  • 080° at 4 KTS
Cloud Levels
  • Clear skies